sensor_id;sensor_type;location;lat;lon;timestamp;P1;durP1;ratioP1;P2;durP2;ratioP2
10467;SDS011;5281;48.878;9.394;2022-12-17T00:01:33;22.13;;;12.37;;
10467;SDS011;5281;48.878;9.394;2022-12-17T00:04:18;19.90;;;11.33;;
10467;SDS011;5281;48.878;9.394;2022-12-17T00:07:02;18.07;;;11.67;;
10467;SDS011;5281;48.878;9.394;2022-12-17T00:09:46;18.40;;;10.90;;
10467;SDS011;5281;48.878;9.394;2022-12-17T00:12:32;19.20;;;11.53;;
10467;SDS011;5281;48.878;9.394;2022-12-17T00:15:16;16.63;;;10.80;;
10467;SDS011;5281;48.878;9.394;2022-12-17T00:18:01;17.33;;;11.10;;
10467;SDS011;5281;48.878;9.394;2022-12-17T00:20:50;19.90;;;12.00;;
10467;SDS011;5281;48.878;9.394;2022-12-17T00:23:35;17.90;;;11.53;;
10467;SDS011;5281;48.878;9.394;2022-12-17T00:26:19;19.87;;;12.23;;
10467;SDS011;5281;48.878;9.394;2022-12-17T00:29:05;21.90;;;12.47;;
10467;SDS011;5281;48.878;9.394;2022-12-17T00:31:49;20.87;;;14.20;;
10467;SDS011;5281;48.878;9.394;2022-12-17T00:34:47;20.60;;;14.17;;
10467;SDS011;5281;48.878;9.394;2022-12-17T00:37:32;19.30;;;13.57;;
10467;SDS011;5281;48.878;9.394;2022-12-17T00:40:16;22.23;;;12.80;;
10467;SDS011;5281;48.878;9.394;2022-12-17T00:43:01;20.57;;;13.03;;
10467;SDS011;5281;48.878;9.394;2022-12-17T00:45:49;23.30;;;13.53;;
10467;SDS011;5281;48.878;9.394;2022-12-17T00:48:34;26.67;;;13.73;;
10467;SDS011;5281;48.878;9.394;2022-12-17T00:51:19;20.00;;;13.07;;
10467;SDS011;5281;48.878;9.394;2022-12-17T00:54:04;20.83;;;12.87;;
10467;SDS011;5281;48.878;9.394;2022-12-17T00:56:48;25.13;;;13.57;;
10467;SDS011;5281;48.878;9.394;2022-12-17T00:59:32;22.13;;;13.03;;
10467;SDS011;5281;48.878;9.394;2022-12-17T01:02:18;24.57;;;13.90;;
10467;SDS011;5281;48.878;9.394;2022-12-17T01:05:03;20.80;;;13.10;;
10467;SDS011;5281;48.878;9.394;2022-12-17T01:07:48;21.63;;;12.27;;
10467;SDS011;5281;48.878;9.394;2022-12-17T01:10:32;18.97;;;12.00;;
10467;SDS011;5281;48.878;9.394;2022-12-17T01:13:17;17.93;;;11.47;;
10467;SDS011;5281;48.878;9.394;2022-12-17T01:16:02;22.17;;;12.57;;
10467;SDS011;5281;48.878;9.394;2022-12-17T01:18:48;20.40;;;12.90;;
10467;SDS011;5281;48.878;9.394;2022-12-17T01:21:34;19.47;;;11.63;;
10467;SDS011;5281;48.878;9.394;2022-12-17T01:24:18;18.37;;;11.97;;
10467;SDS011;5281;48.878;9.394;2022-12-17T01:27:01;21.73;;;12.13;;
10467;SDS011;5281;48.878;9.394;2022-12-17T01:29:45;21.63;;;12.00;;
10467;SDS011;5281;48.878;9.394;2022-12-17T01:32:29;20.63;;;12.20;;
10467;SDS011;5281;48.878;9.394;2022-12-17T01:35:14;18.93;;;12.00;;
10467;SDS011;5281;48.878;9.394;2022-12-17T01:37:59;20.17;;;11.50;;
10467;SDS011;5281;48.878;9.394;2022-12-17T01:40:43;17.83;;;11.73;;
10467;SDS011;5281;48.878;9.394;2022-12-17T01:43:31;20.57;;;11.47;;
10467;SDS011;5281;48.878;9.394;2022-12-17T01:46:16;17.90;;;11.30;;
10467;SDS011;5281;48.878;9.394;2022-12-17T01:49:00;25.67;;;12.97;;
10467;SDS011;5281;48.878;9.394;2022-12-17T01:51:46;19.30;;;12.20;;
10467;SDS011;5281;48.878;9.394;2022-12-17T01:54:48;20.80;;;12.00;;
10467;SDS011;5281;48.878;9.394;2022-12-17T01:57:32;20.40;;;12.40;;
10467;SDS011;5281;48.878;9.394;2022-12-17T02:00:17;21.23;;;11.90;;
10467;SDS011;5281;48.878;9.394;2022-12-17T02:03:02;20.73;;;11.57;;
10467;SDS011;5281;48.878;9.394;2022-12-17T02:05:48;18.43;;;11.03;;
10467;SDS011;5281;48.878;9.394;2022-12-17T02:08:43;20.07;;;10.83;;
10467;SDS011;5281;48.878;9.394;2022-12-17T02:11:39;20.07;;;11.50;;
10467;SDS011;5281;48.878;9.394;2022-12-17T02:14:28;22.60;;;13.10;;
10467;SDS011;5281;48.878;9.394;2022-12-17T02:17:20;17.37;;;11.00;;
10467;SDS011;5281;48.878;9.394;2022-12-17T02:20:16;17.53;;;11.23;;
10467;SDS011;5281;48.878;9.394;2022-12-17T02:23:07;18.40;;;11.50;;
10467;SDS011;5281;48.878;9.394;2022-12-17T02:26:01;20.87;;;11.37;;
10467;SDS011;5281;48.878;9.394;2022-12-17T02:28:50;18.07;;;11.30;;
10467;SDS011;5281;48.878;9.394;2022-12-17T02:31:36;17.20;;;10.53;;
10467;SDS011;5281;48.878;9.394;2022-12-17T02:34:22;17.83;;;11.17;;
10467;SDS011;5281;48.878;9.394;2022-12-17T02:37:06;17.87;;;10.70;;
10467;SDS011;5281;48.878;9.394;2022-12-17T02:39:51;21.93;;;12.43;;
10467;SDS011;5281;48.878;9.394;2022-12-17T02:42:35;18.97;;;11.73;;
10467;SDS011;5281;48.878;9.394;2022-12-17T02:45:21;20.77;;;11.57;;
10467;SDS011;5281;48.878;9.394;2022-12-17T02:48:06;18.23;;;11.23;;
10467;SDS011;5281;48.878;9.394;2022-12-17T02:50:52;18.47;;;11.17;;
10467;SDS011;5281;48.878;9.394;2022-12-17T02:53:40;17.63;;;11.50;;
10467;SDS011;5281;48.878;9.394;2022-12-17T02:56:26;20.20;;;11.93;;
10467;SDS011;5281;48.878;9.394;2022-12-17T02:59:10;19.77;;;12.17;;
10467;SDS011;5281;48.878;9.394;2022-12-17T03:01:56;22.17;;;12.50;;
10467;SDS011;5281;48.878;9.394;2022-12-17T03:04:46;22.40;;;11.93;;
10467;SDS011;5281;48.878;9.394;2022-12-17T03:07:30;20.87;;;12.80;;
10467;SDS011;5281;48.878;9.394;2022-12-17T03:10:14;23.20;;;12.53;;
10467;SDS011;5281;48.878;9.394;2022-12-17T03:12:59;19.77;;;12.00;;
10467;SDS011;5281;48.878;9.394;2022-12-17T03:15:43;20.20;;;12.67;;
10467;SDS011;5281;48.878;9.394;2022-12-17T03:18:37;21.63;;;13.20;;
10467;SDS011;5281;48.878;9.394;2022-12-17T03:21:21;19.20;;;11.87;;
10467;SDS011;5281;48.878;9.394;2022-12-17T03:24:05;22.97;;;12.50;;
10467;SDS011;5281;48.878;9.394;2022-12-17T03:26:49;18.90;;;12.50;;
10467;SDS011;5281;48.878;9.394;2022-12-17T03:29:33;21.13;;;12.07;;
10467;SDS011;5281;48.878;9.394;2022-12-17T03:32:17;21.50;;;12.27;;
10467;SDS011;5281;48.878;9.394;2022-12-17T03:35:02;25.93;;;13.23;;
10467;SDS011;5281;48.878;9.394;2022-12-17T03:37:47;20.20;;;12.30;;
10467;SDS011;5281;48.878;9.394;2022-12-17T03:40:31;24.47;;;11.97;;
10467;SDS011;5281;48.878;9.394;2022-12-17T03:43:15;21.27;;;12.00;;
10467;SDS011;5281;48.878;9.394;2022-12-17T03:46:04;19.63;;;12.33;;
10467;SDS011;5281;48.878;9.394;2022-12-17T03:48:49;21.97;;;13.07;;
10467;SDS011;5281;48.878;9.394;2022-12-17T03:51:34;22.13;;;13.13;;
10467;SDS011;5281;48.878;9.394;2022-12-17T03:54:18;19.60;;;11.57;;
10467;SDS011;5281;48.878;9.394;2022-12-17T03:57:03;20.53;;;12.57;;
10467;SDS011;5281;48.878;9.394;2022-12-17T03:59:47;21.50;;;13.10;;
10467;SDS011;5281;48.878;9.394;2022-12-17T04:02:31;25.30;;;14.00;;
10467;SDS011;5281;48.878;9.394;2022-12-17T04:05:20;25.37;;;13.77;;
10467;SDS011;5281;48.878;9.394;2022-12-17T04:08:14;30.37;;;14.20;;
10467;SDS011;5281;48.878;9.394;2022-12-17T04:11:13;22.57;;;13.73;;
10467;SDS011;5281;48.878;9.394;2022-12-17T04:13:57;23.47;;;13.53;;
10467;SDS011;5281;48.878;9.394;2022-12-17T04:16:41;29.43;;;14.40;;
10467;SDS011;5281;48.878;9.394;2022-12-17T04:19:26;21.07;;;12.93;;
10467;SDS011;5281;48.878;9.394;2022-12-17T04:22:10;31.20;;;14.30;;
10467;SDS011;5281;48.878;9.394;2022-12-17T04:24:55;57.33;;;16.03;;
10467;SDS011;5281;48.878;9.394;2022-12-17T04:27:39;25.87;;;13.57;;
10467;SDS011;5281;48.878;9.394;2022-12-17T04:30:24;38.10;;;15.43;;
10467;SDS011;5281;48.878;9.394;2022-12-17T04:33:08;29.13;;;14.90;;
10467;SDS011;5281;48.878;9.394;2022-12-17T04:35:52;29.73;;;15.40;;
10467;SDS011;5281;48.878;9.394;2022-12-17T04:38:36;36.33;;;15.73;;
10467;SDS011;5281;48.878;9.394;2022-12-17T04:41:21;38.73;;;15.30;;
10467;SDS011;5281;48.878;9.394;2022-12-17T04:44:05;45.53;;;15.27;;
10467;SDS011;5281;48.878;9.394;2022-12-17T04:46:49;33.17;;;16.23;;
10467;SDS011;5281;48.878;9.394;2022-12-17T04:49:33;35.00;;;15.80;;
10467;SDS011;5281;48.878;9.394;2022-12-17T04:52:18;33.07;;;16.30;;
10467;SDS011;5281;48.878;9.394;2022-12-17T04:55:02;35.37;;;17.17;;
10467;SDS011;5281;48.878;9.394;2022-12-17T04:57:48;28.73;;;16.30;;
10467;SDS011;5281;48.878;9.394;2022-12-17T05:00:32;31.80;;;16.20;;
10467;SDS011;5281;48.878;9.394;2022-12-17T05:03:16;29.23;;;16.27;;
10467;SDS011;5281;48.878;9.394;2022-12-17T05:06:00;30.23;;;16.47;;
10467;SDS011;5281;48.878;9.394;2022-12-17T05:08:45;26.07;;;15.77;;
10467;SDS011;5281;48.878;9.394;2022-12-17T05:11:29;26.87;;;15.90;;
10467;SDS011;5281;48.878;9.394;2022-12-17T05:14:15;26.20;;;15.37;;
10467;SDS011;5281;48.878;9.394;2022-12-17T05:16:59;26.30;;;15.93;;
10467;SDS011;5281;48.878;9.394;2022-12-17T05:19:43;24.73;;;13.97;;
10467;SDS011;5281;48.878;9.394;2022-12-17T05:22:28;22.60;;;14.13;;
10467;SDS011;5281;48.878;9.394;2022-12-17T05:25:12;20.67;;;13.63;;
10467;SDS011;5281;48.878;9.394;2022-12-17T05:27:56;23.37;;;14.23;;
10467;SDS011;5281;48.878;9.394;2022-12-17T05:30:42;23.77;;;13.73;;
10467;SDS011;5281;48.878;9.394;2022-12-17T05:33:26;24.03;;;14.83;;
10467;SDS011;5281;48.878;9.394;2022-12-17T05:36:10;30.27;;;17.47;;
10467;SDS011;5281;48.878;9.394;2022-12-17T05:38:54;27.60;;;16.07;;
10467;SDS011;5281;48.878;9.394;2022-12-17T05:41:38;29.47;;;16.37;;
10467;SDS011;5281;48.878;9.394;2022-12-17T05:44:23;25.70;;;15.27;;
10467;SDS011;5281;48.878;9.394;2022-12-17T05:47:11;25.97;;;15.90;;
10467;SDS011;5281;48.878;9.394;2022-12-17T05:49:55;24.80;;;14.67;;
10467;SDS011;5281;48.878;9.394;2022-12-17T05:52:39;30.53;;;17.50;;
10467;SDS011;5281;48.878;9.394;2022-12-17T05:55:23;22.97;;;14.53;;
10467;SDS011;5281;48.878;9.394;2022-12-17T05:58:08;23.83;;;13.77;;
10467;SDS011;5281;48.878;9.394;2022-12-17T06:00:54;23.97;;;13.83;;
10467;SDS011;5281;48.878;9.394;2022-12-17T06:03:39;24.47;;;14.50;;
10467;SDS011;5281;48.878;9.394;2022-12-17T06:06:24;25.20;;;14.73;;
10467;SDS011;5281;48.878;9.394;2022-12-17T06:09:08;29.20;;;16.77;;
10467;SDS011;5281;48.878;9.394;2022-12-17T06:11:52;23.07;;;14.40;;
10467;SDS011;5281;48.878;9.394;2022-12-17T06:14:36;27.10;;;14.93;;
10467;SDS011;5281;48.878;9.394;2022-12-17T06:17:20;27.57;;;15.97;;
10467;SDS011;5281;48.878;9.394;2022-12-17T06:20:06;26.57;;;15.90;;
10467;SDS011;5281;48.878;9.394;2022-12-17T06:22:57;28.40;;;16.57;;
10467;SDS011;5281;48.878;9.394;2022-12-17T06:25:42;24.80;;;15.50;;
10467;SDS011;5281;48.878;9.394;2022-12-17T06:28:26;24.37;;;14.97;;
10467;SDS011;5281;48.878;9.394;2022-12-17T06:31:10;27.10;;;16.60;;
10467;SDS011;5281;48.878;9.394;2022-12-17T06:33:54;30.97;;;17.10;;
10467;SDS011;5281;48.878;9.394;2022-12-17T06:36:39;26.43;;;16.43;;
10467;SDS011;5281;48.878;9.394;2022-12-17T06:39:24;24.30;;;15.90;;
10467;SDS011;5281;48.878;9.394;2022-12-17T06:42:08;26.43;;;16.70;;
10467;SDS011;5281;48.878;9.394;2022-12-17T06:44:52;27.40;;;15.83;;
10467;SDS011;5281;48.878;9.394;2022-12-17T06:47:36;26.27;;;15.87;;
10467;SDS011;5281;48.878;9.394;2022-12-17T06:50:32;25.63;;;16.03;;
10467;SDS011;5281;48.878;9.394;2022-12-17T06:53:17;26.20;;;15.87;;
10467;SDS011;5281;48.878;9.394;2022-12-17T06:56:02;24.93;;;15.40;;
10467;SDS011;5281;48.878;9.394;2022-12-17T06:58:46;26.80;;;16.00;;
10467;SDS011;5281;48.878;9.394;2022-12-17T07:01:30;25.37;;;15.63;;
10467;SDS011;5281;48.878;9.394;2022-12-17T07:04:14;21.40;;;14.17;;
10467;SDS011;5281;48.878;9.394;2022-12-17T07:06:58;27.67;;;16.50;;
10467;SDS011;5281;48.878;9.394;2022-12-17T07:09:44;24.80;;;15.60;;
10467;SDS011;5281;48.878;9.394;2022-12-17T07:12:28;24.93;;;16.23;;
10467;SDS011;5281;48.878;9.394;2022-12-17T07:15:12;25.67;;;16.13;;
10467;SDS011;5281;48.878;9.394;2022-12-17T07:17:56;24.50;;;16.07;;
10467;SDS011;5281;48.878;9.394;2022-12-17T07:20:42;43.13;;;24.93;;
10467;SDS011;5281;48.878;9.394;2022-12-17T07:25:55;28.30;;;17.83;;
10467;SDS011;5281;48.878;9.394;2022-12-17T07:28:40;24.73;;;15.73;;
10467;SDS011;5281;48.878;9.394;2022-12-17T07:31:24;24.80;;;15.67;;
10467;SDS011;5281;48.878;9.394;2022-12-17T07:34:08;24.87;;;16.33;;
10467;SDS011;5281;48.878;9.394;2022-12-17T07:36:52;23.90;;;15.40;;
10467;SDS011;5281;48.878;9.394;2022-12-17T07:39:36;26.30;;;16.73;;
10467;SDS011;5281;48.878;9.394;2022-12-17T07:42:21;26.90;;;15.87;;
10467;SDS011;5281;48.878;9.394;2022-12-17T07:45:06;23.80;;;15.70;;
10467;SDS011;5281;48.878;9.394;2022-12-17T07:47:51;22.17;;;15.13;;
10467;SDS011;5281;48.878;9.394;2022-12-17T07:50:35;25.77;;;14.83;;
10467;SDS011;5281;48.878;9.394;2022-12-17T07:53:28;28.47;;;16.13;;
10467;SDS011;5281;48.878;9.394;2022-12-17T07:56:12;21.97;;;14.70;;
10467;SDS011;5281;48.878;9.394;2022-12-17T07:58:57;24.03;;;15.90;;
10467;SDS011;5281;48.878;9.394;2022-12-17T08:01:41;22.90;;;15.40;;
10467;SDS011;5281;48.878;9.394;2022-12-17T08:04:25;26.83;;;16.53;;
10467;SDS011;5281;48.878;9.394;2022-12-17T08:07:09;25.03;;;16.17;;
10467;SDS011;5281;48.878;9.394;2022-12-17T08:09:54;24.77;;;15.97;;
10467;SDS011;5281;48.878;9.394;2022-12-17T08:12:38;24.00;;;16.23;;
10467;SDS011;5281;48.878;9.394;2022-12-17T08:15:23;24.03;;;15.47;;
10467;SDS011;5281;48.878;9.394;2022-12-17T08:18:08;25.67;;;15.53;;
10467;SDS011;5281;48.878;9.394;2022-12-17T08:20:52;24.57;;;15.13;;
10467;SDS011;5281;48.878;9.394;2022-12-17T08:23:36;25.63;;;16.10;;
10467;SDS011;5281;48.878;9.394;2022-12-17T08:26:21;24.60;;;15.33;;
10467;SDS011;5281;48.878;9.394;2022-12-17T08:29:04;26.53;;;15.67;;
10467;SDS011;5281;48.878;9.394;2022-12-17T08:31:49;25.63;;;16.13;;
10467;SDS011;5281;48.878;9.394;2022-12-17T08:34:34;23.37;;;15.30;;
10467;SDS011;5281;48.878;9.394;2022-12-17T08:37:18;22.80;;;15.33;;
10467;SDS011;5281;48.878;9.394;2022-12-17T08:40:02;25.07;;;15.97;;
10467;SDS011;5281;48.878;9.394;2022-12-17T08:42:47;28.13;;;16.83;;
10467;SDS011;5281;48.878;9.394;2022-12-17T08:45:38;25.50;;;16.30;;
10467;SDS011;5281;48.878;9.394;2022-12-17T08:48:23;25.13;;;15.47;;
10467;SDS011;5281;48.878;9.394;2022-12-17T08:51:07;25.13;;;16.57;;
10467;SDS011;5281;48.878;9.394;2022-12-17T08:53:51;24.03;;;15.10;;
10467;SDS011;5281;48.878;9.394;2022-12-17T08:56:35;29.30;;;17.20;;
10467;SDS011;5281;48.878;9.394;2022-12-17T08:59:19;26.60;;;16.93;;
10467;SDS011;5281;48.878;9.394;2022-12-17T09:02:03;25.60;;;15.73;;
10467;SDS011;5281;48.878;9.394;2022-12-17T09:04:49;26.97;;;17.67;;
10467;SDS011;5281;48.878;9.394;2022-12-17T09:07:29;27.87;;;17.83;;
10467;SDS011;5281;48.878;9.394;2022-12-17T09:10:14;26.10;;;17.27;;
10467;SDS011;5281;48.878;9.394;2022-12-17T09:13:00;28.13;;;16.33;;
10467;SDS011;5281;48.878;9.394;2022-12-17T09:15:49;27.63;;;19.97;;
10467;SDS011;5281;48.878;9.394;2022-12-17T09:18:34;23.40;;;15.97;;
10467;SDS011;5281;48.878;9.394;2022-12-17T09:21:19;29.77;;;18.10;;
10467;SDS011;5281;48.878;9.394;2022-12-17T09:24:04;26.33;;;16.00;;
10467;SDS011;5281;48.878;9.394;2022-12-17T09:26:48;25.83;;;16.13;;
10467;SDS011;5281;48.878;9.394;2022-12-17T09:29:29;24.67;;;16.37;;
10467;SDS011;5281;48.878;9.394;2022-12-17T09:32:14;26.67;;;16.37;;
10467;SDS011;5281;48.878;9.394;2022-12-17T09:34:58;25.23;;;15.80;;
10467;SDS011;5281;48.878;9.394;2022-12-17T09:37:43;23.80;;;16.03;;
10467;SDS011;5281;48.878;9.394;2022-12-17T09:40:34;23.10;;;16.30;;
10467;SDS011;5281;48.878;9.394;2022-12-17T09:43:21;24.10;;;16.50;;
10467;SDS011;5281;48.878;9.394;2022-12-17T09:46:13;24.20;;;16.10;;
10467;SDS011;5281;48.878;9.394;2022-12-17T09:49:04;25.97;;;16.90;;
10467;SDS011;5281;48.878;9.394;2022-12-17T09:51:57;27.63;;;17.23;;
10467;SDS011;5281;48.878;9.394;2022-12-17T09:54:43;22.63;;;15.07;;
10467;SDS011;5281;48.878;9.394;2022-12-17T09:57:32;23.97;;;15.37;;
10467;SDS011;5281;48.878;9.394;2022-12-17T10:00:19;27.00;;;16.63;;
10467;SDS011;5281;48.878;9.394;2022-12-17T10:03:08;24.40;;;16.57;;
10467;SDS011;5281;48.878;9.394;2022-12-17T10:05:55;24.70;;;16.43;;
10467;SDS011;5281;48.878;9.394;2022-12-17T10:08:41;23.27;;;15.80;;
10467;SDS011;5281;48.878;9.394;2022-12-17T10:11:28;24.23;;;16.10;;
10467;SDS011;5281;48.878;9.394;2022-12-17T10:14:14;24.27;;;16.93;;
10467;SDS011;5281;48.878;9.394;2022-12-17T10:17:00;22.03;;;15.10;;
10467;SDS011;5281;48.878;9.394;2022-12-17T10:19:44;22.90;;;14.97;;
10467;SDS011;5281;48.878;9.394;2022-12-17T10:22:40;24.70;;;15.67;;
10467;SDS011;5281;48.878;9.394;2022-12-17T10:25:26;25.20;;;16.53;;
10467;SDS011;5281;48.878;9.394;2022-12-17T10:28:13;29.60;;;18.63;;
10467;SDS011;5281;48.878;9.394;2022-12-17T10:30:58;24.90;;;16.50;;
10467;SDS011;5281;48.878;9.394;2022-12-17T10:33:44;27.23;;;18.17;;
10467;SDS011;5281;48.878;9.394;2022-12-17T10:36:29;23.33;;;15.83;;
10467;SDS011;5281;48.878;9.394;2022-12-17T10:39:14;24.73;;;17.07;;
10467;SDS011;5281;48.878;9.394;2022-12-17T10:42:00;26.43;;;17.47;;
10467;SDS011;5281;48.878;9.394;2022-12-17T10:44:46;26.43;;;16.43;;
10467;SDS011;5281;48.878;9.394;2022-12-17T10:47:32;26.90;;;17.33;;
10467;SDS011;5281;48.878;9.394;2022-12-17T10:50:17;32.00;;;20.23;;
10467;SDS011;5281;48.878;9.394;2022-12-17T10:53:04;25.47;;;16.93;;
10467;SDS011;5281;48.878;9.394;2022-12-17T10:56:00;25.63;;;17.23;;
10467;SDS011;5281;48.878;9.394;2022-12-17T10:58:42;27.17;;;18.10;;
10467;SDS011;5281;48.878;9.394;2022-12-17T11:01:28;29.37;;;18.10;;
10467;SDS011;5281;48.878;9.394;2022-12-17T11:04:21;25.57;;;16.50;;
10467;SDS011;5281;48.878;9.394;2022-12-17T11:07:07;27.40;;;17.70;;
10467;SDS011;5281;48.878;9.394;2022-12-17T11:09:55;28.63;;;18.20;;
10467;SDS011;5281;48.878;9.394;2022-12-17T11:12:49;27.20;;;18.00;;
10467;SDS011;5281;48.878;9.394;2022-12-17T11:15:38;25.47;;;17.10;;
10467;SDS011;5281;48.878;9.394;2022-12-17T11:18:28;38.73;;;24.93;;
10467;SDS011;5281;48.878;9.394;2022-12-17T11:21:20;25.50;;;17.10;;
10467;SDS011;5281;48.878;9.394;2022-12-17T11:24:09;28.33;;;17.73;;
10467;SDS011;5281;48.878;9.394;2022-12-17T11:26:57;26.87;;;17.20;;
10467;SDS011;5281;48.878;9.394;2022-12-17T11:29:44;26.10;;;17.70;;
10467;SDS011;5281;48.878;9.394;2022-12-17T11:35:37;27.27;;;17.87;;
10467;SDS011;5281;48.878;9.394;2022-12-17T11:38:31;28.20;;;18.17;;
10467;SDS011;5281;48.878;9.394;2022-12-17T11:41:20;26.30;;;17.50;;
10467;SDS011;5281;48.878;9.394;2022-12-17T11:44:14;24.80;;;16.63;;
10467;SDS011;5281;48.878;9.394;2022-12-17T11:47:11;28.33;;;17.03;;
10467;SDS011;5281;48.878;9.394;2022-12-17T11:50:05;27.37;;;16.93;;
10467;SDS011;5281;48.878;9.394;2022-12-17T11:53:00;29.03;;;18.03;;
10467;SDS011;5281;48.878;9.394;2022-12-17T11:55:50;26.50;;;17.10;;
10467;SDS011;5281;48.878;9.394;2022-12-17T11:58:39;28.67;;;18.07;;
10467;SDS011;5281;48.878;9.394;2022-12-17T12:01:29;26.27;;;17.03;;
10467;SDS011;5281;48.878;9.394;2022-12-17T12:04:24;25.60;;;15.90;;
10467;SDS011;5281;48.878;9.394;2022-12-17T12:07:19;24.30;;;15.77;;
10467;SDS011;5281;48.878;9.394;2022-12-17T12:10:20;25.73;;;17.10;;
10467;SDS011;5281;48.878;9.394;2022-12-17T12:13:12;23.77;;;15.40;;
10467;SDS011;5281;48.878;9.394;2022-12-17T12:16:03;25.87;;;16.67;;
10467;SDS011;5281;48.878;9.394;2022-12-17T12:18:56;25.60;;;17.07;;
10467;SDS011;5281;48.878;9.394;2022-12-17T12:21:49;24.93;;;16.57;;
10467;SDS011;5281;48.878;9.394;2022-12-17T12:24:47;27.50;;;16.83;;
10467;SDS011;5281;48.878;9.394;2022-12-17T12:27:47;26.90;;;16.00;;
10467;SDS011;5281;48.878;9.394;2022-12-17T12:30:39;27.13;;;17.20;;
10467;SDS011;5281;48.878;9.394;2022-12-17T12:33:34;24.10;;;15.53;;
10467;SDS011;5281;48.878;9.394;2022-12-17T12:36:23;27.90;;;17.60;;
10467;SDS011;5281;48.878;9.394;2022-12-17T12:39:11;26.87;;;17.53;;
10467;SDS011;5281;48.878;9.394;2022-12-17T12:42:00;24.80;;;16.80;;
10467;SDS011;5281;48.878;9.394;2022-12-17T12:44:53;26.97;;;17.53;;
10467;SDS011;5281;48.878;9.394;2022-12-17T12:47:45;25.63;;;17.70;;
10467;SDS011;5281;48.878;9.394;2022-12-17T12:50:38;27.87;;;17.57;;
10467;SDS011;5281;48.878;9.394;2022-12-17T12:53:30;27.33;;;18.20;;
10467;SDS011;5281;48.878;9.394;2022-12-17T12:56:23;27.63;;;17.87;;
10467;SDS011;5281;48.878;9.394;2022-12-17T12:59:15;25.60;;;16.33;;
10467;SDS011;5281;48.878;9.394;2022-12-17T13:02:13;29.27;;;17.77;;
10467;SDS011;5281;48.878;9.394;2022-12-17T13:05:16;29.13;;;17.87;;
10467;SDS011;5281;48.878;9.394;2022-12-17T13:10:45;28.40;;;17.83;;
10467;SDS011;5281;48.878;9.394;2022-12-17T13:13:20;28.83;;;18.03;;
10467;SDS011;5281;48.878;9.394;2022-12-17T13:15:53;27.40;;;17.67;;
10467;SDS011;5281;48.878;9.394;2022-12-17T13:18:24;27.13;;;18.07;;
10467;SDS011;5281;48.878;9.394;2022-12-17T13:20:57;29.83;;;18.43;;
10467;SDS011;5281;48.878;9.394;2022-12-17T13:23:30;27.80;;;18.33;;
10467;SDS011;5281;48.878;9.394;2022-12-17T13:26:02;26.00;;;17.80;;
10467;SDS011;5281;48.878;9.394;2022-12-17T13:28:39;30.40;;;18.30;;
10467;SDS011;5281;48.878;9.394;2022-12-17T13:31:12;34.70;;;20.67;;
10467;SDS011;5281;48.878;9.394;2022-12-17T13:33:44;30.60;;;19.53;;
10467;SDS011;5281;48.878;9.394;2022-12-17T13:36:16;29.30;;;18.53;;
10467;SDS011;5281;48.878;9.394;2022-12-17T13:38:52;30.50;;;19.33;;
10467;SDS011;5281;48.878;9.394;2022-12-17T13:41:26;29.03;;;19.10;;
10467;SDS011;5281;48.878;9.394;2022-12-17T13:43:55;30.87;;;18.90;;
10467;SDS011;5281;48.878;9.394;2022-12-17T13:46:25;33.03;;;18.43;;
10467;SDS011;5281;48.878;9.394;2022-12-17T13:48:55;26.57;;;17.87;;
10467;SDS011;5281;48.878;9.394;2022-12-17T13:51:24;29.20;;;18.17;;
10467;SDS011;5281;48.878;9.394;2022-12-17T13:53:53;28.07;;;17.80;;
10467;SDS011;5281;48.878;9.394;2022-12-17T13:56:22;30.87;;;20.10;;
10467;SDS011;5281;48.878;9.394;2022-12-17T13:58:51;28.63;;;19.60;;
10467;SDS011;5281;48.878;9.394;2022-12-17T14:01:18;29.93;;;19.20;;
10467;SDS011;5281;48.878;9.394;2022-12-17T14:03:49;31.90;;;20.00;;
10467;SDS011;5281;48.878;9.394;2022-12-17T14:06:19;29.80;;;18.93;;
10467;SDS011;5281;48.878;9.394;2022-12-17T14:08:47;30.37;;;20.17;;
10467;SDS011;5281;48.878;9.394;2022-12-17T14:11:17;30.27;;;20.07;;
10467;SDS011;5281;48.878;9.394;2022-12-17T14:14:02;32.47;;;18.63;;
10467;SDS011;5281;48.878;9.394;2022-12-17T14:16:33;31.57;;;20.43;;
10467;SDS011;5281;48.878;9.394;2022-12-17T14:19:00;31.37;;;20.37;;
10467;SDS011;5281;48.878;9.394;2022-12-17T14:21:28;30.03;;;19.50;;
10467;SDS011;5281;48.878;9.394;2022-12-17T14:23:55;31.10;;;19.67;;
10467;SDS011;5281;48.878;9.394;2022-12-17T14:26:22;30.90;;;19.60;;
10467;SDS011;5281;48.878;9.394;2022-12-17T14:28:50;34.40;;;21.53;;
10467;SDS011;5281;48.878;9.394;2022-12-17T14:31:20;34.70;;;21.23;;
10467;SDS011;5281;48.878;9.394;2022-12-17T14:33:58;32.67;;;20.53;;
10467;SDS011;5281;48.878;9.394;2022-12-17T14:36:32;35.03;;;20.67;;
10467;SDS011;5281;48.878;9.394;2022-12-17T14:39:02;33.10;;;20.30;;
10467;SDS011;5281;48.878;9.394;2022-12-17T14:41:36;39.43;;;22.27;;
10467;SDS011;5281;48.878;9.394;2022-12-17T14:44:21;34.17;;;21.17;;
10467;SDS011;5281;48.878;9.394;2022-12-17T14:46:52;34.37;;;20.57;;
10467;SDS011;5281;48.878;9.394;2022-12-17T14:49:31;33.70;;;20.23;;
10467;SDS011;5281;48.878;9.394;2022-12-17T14:52:09;33.73;;;21.07;;
10467;SDS011;5281;48.878;9.394;2022-12-17T14:54:43;38.73;;;21.10;;
10467;SDS011;5281;48.878;9.394;2022-12-17T14:57:16;38.87;;;22.83;;
10467;SDS011;5281;48.878;9.394;2022-12-17T14:59:45;36.03;;;21.40;;
10467;SDS011;5281;48.878;9.394;2022-12-17T15:02:14;33.37;;;20.60;;
10467;SDS011;5281;48.878;9.394;2022-12-17T15:04:47;31.00;;;18.73;;
10467;SDS011;5281;48.878;9.394;2022-12-17T15:07:18;33.30;;;21.07;;
10467;SDS011;5281;48.878;9.394;2022-12-17T15:09:49;37.50;;;20.67;;
10467;SDS011;5281;48.878;9.394;2022-12-17T15:12:16;35.63;;;20.83;;
10467;SDS011;5281;48.878;9.394;2022-12-17T15:14:43;36.47;;;20.90;;
10467;SDS011;5281;48.878;9.394;2022-12-17T15:17:10;41.53;;;24.30;;
10467;SDS011;5281;48.878;9.394;2022-12-17T15:19:37;37.33;;;23.50;;
10467;SDS011;5281;48.878;9.394;2022-12-17T15:22:04;33.37;;;20.83;;
10467;SDS011;5281;48.878;9.394;2022-12-17T15:24:33;30.63;;;18.97;;
10467;SDS011;5281;48.878;9.394;2022-12-17T15:26:59;34.13;;;20.77;;
10467;SDS011;5281;48.878;9.394;2022-12-17T15:29:26;33.90;;;20.83;;
10467;SDS011;5281;48.878;9.394;2022-12-17T15:31:53;30.80;;;19.33;;
10467;SDS011;5281;48.878;9.394;2022-12-17T15:34:19;32.27;;;18.80;;
10467;SDS011;5281;48.878;9.394;2022-12-17T15:36:46;31.13;;;20.03;;
10467;SDS011;5281;48.878;9.394;2022-12-17T15:39:13;32.33;;;19.27;;
10467;SDS011;5281;48.878;9.394;2022-12-17T15:41:41;35.27;;;20.77;;
10467;SDS011;5281;48.878;9.394;2022-12-17T15:44:25;32.30;;;20.03;;
10467;SDS011;5281;48.878;9.394;2022-12-17T15:46:52;37.30;;;22.97;;
10467;SDS011;5281;48.878;9.394;2022-12-17T15:49:18;34.67;;;20.97;;
10467;SDS011;5281;48.878;9.394;2022-12-17T15:51:45;32.87;;;19.17;;
10467;SDS011;5281;48.878;9.394;2022-12-17T15:54:12;33.43;;;19.70;;
10467;SDS011;5281;48.878;9.394;2022-12-17T15:56:39;34.57;;;20.23;;
10467;SDS011;5281;48.878;9.394;2022-12-17T15:59:07;33.37;;;19.70;;
10467;SDS011;5281;48.878;9.394;2022-12-17T16:01:34;30.53;;;19.80;;
10467;SDS011;5281;48.878;9.394;2022-12-17T16:04:01;42.20;;;27.07;;
10467;SDS011;5281;48.878;9.394;2022-12-17T16:06:27;58.30;;;35.23;;
10467;SDS011;5281;48.878;9.394;2022-12-17T16:08:54;45.97;;;28.97;;
10467;SDS011;5281;48.878;9.394;2022-12-17T16:11:21;65.60;;;39.50;;
10467;SDS011;5281;48.878;9.394;2022-12-17T16:13:51;61.13;;;36.73;;
10467;SDS011;5281;48.878;9.394;2022-12-17T16:16:20;64.87;;;39.37;;